Time,TemperatureF,DewpointF,PressureIn,WindDirection,WindDirectionDegrees,WindSpeedMPH,WindSpeedGustMPH,Humidity,HourlyPrecipIn,Conditions,Clouds,dailyrainin,SoftwareType,DateUTC
2013-02-21 00:00:00,29.1,24.9,30.10,NE,48,3.1,3.1,84,0.00,,,0.00,VWS V13.01,2013-02-21 06:00:00,
2013-02-21 00:05:00,29.1,25.4,30.10,NE,48,3.6,4.9,86,0.00,,,0.00,VWS V13.01,2013-02-21 06:05:00,
2013-02-21 00:10:00,29.1,25.2,30.10,NE,48,4.9,4.9,85,0.00,,,0.00,VWS V13.01,2013-02-21 06:10:00,
2013-02-21 00:15:00,29.1,25.2,30.10,NE,48,0.0,4.0,85,0.00,,,0.00,VWS V13.01,2013-02-21 06:15:00,
2013-02-21 00:20:00,29.1,25.4,30.10,NE,48,3.6,4.0,86,0.00,,,0.00,VWS V13.01,2013-02-21 06:20:00,
2013-02-21 00:25:00,28.9,24.7,30.10,NE,48,5.8,5.8,84,0.00,,,0.00,VWS V13.01,2013-02-21 06:25:00,
2013-02-21 00:30:00,28.9,23.5,30.10,NE,48,0.0,3.1,80,0.00,,,0.00,VWS V13.01,2013-02-21 06:30:00,
2013-02-21 00:35:00,28.9,23.2,30.10,NE,48,3.1,7.6,79,0.00,,,0.00,VWS V13.01,2013-02-21 06:35:00,
2013-02-21 00:40:00,28.9,23.2,30.10,NE,48,4.9,8.1,79,0.00,,,0.00,VWS V13.01,2013-02-21 06:40:00,
2013-02-21 00:45:00,28.9,23.5,30.07,NE,48,6.3,6.3,80,0.00,,,0.00,VWS V13.01,2013-02-21 06:45:00,
2013-02-21 00:50:00,29.1,24.0,30.07,NE,48,3.6,6.3,81,0.00,,,0.00,VWS V13.01,2013-02-21 06:50:00,
2013-02-21 00:55:00,29.1,24.6,30.07,NE,48,4.9,5.8,83,0.00,,,0.00,VWS V13.01,2013-02-21 06:55:00,
2013-02-21 01:00:00,29.1,25.2,30.07,NE,48,6.7,6.7,85,0.00,,,0.00,VWS V13.01,2013-02-21 07:00:00,
2013-02-21 01:05:00,29.1,24.9,30.07,NE,48,4.0,4.0,84,0.00,,,0.00,VWS V13.01,2013-02-21 07:05:00,
2013-02-21 01:10:00,29.1,25.4,30.07,NE,48,3.6,4.9,86,0.00,,,0.00,VWS V13.01,2013-02-21 07:10:00,
2013-02-21 01:15:00,29.1,24.6,30.07,NE,48,5.8,5.8,83,0.00,,,0.00,VWS V13.01,2013-02-21 07:15:00,
2013-02-21 01:20:00,29.3,24.8,30.07,NE,48,4.0,5.8,83,0.00,,,0.00,VWS V13.01,2013-02-21 07:20:00,
2013-02-21 01:25:00,29.3,24.2,30.07,NE,48,6.3,8.3,81,0.00,,,0.00,VWS V13.01,2013-02-21 07:25:00,
2013-02-21 01:30:00,29.6,24.8,30.07,NE,48,3.1,4.0,82,0.00,,,0.00,VWS V13.01,2013-02-21 07:30:00,
2013-02-21 01:35:00,29.6,24.5,30.07,NE,48,4.0,5.4,81,0.00,,,0.00,VWS V13.01,2013-02-21 07:35:00,
2013-02-21 01:40:00,29.5,24.6,30.07,NE,48,5.4,5.8,82,0.00,,,0.00,VWS V13.01,2013-02-21 07:40:00,
2013-02-21 01:45:00,29.6,25.1,30.04,NE,48,4.9,6.3,83,0.00,,,0.00,VWS V13.01,2013-02-21 07:45:00,
2013-02-21 01:50:00,29.6,25.1,30.04,NE,48,3.1,4.0,83,0.00,,,0.00,VWS V13.01,2013-02-21 07:50:00,
2013-02-21 01:55:00,29.6,25.1,30.04,NE,48,4.0,4.0,83,0.00,,,0.00,VWS V13.01,2013-02-21 07:55:00,
2013-02-21 01:59:00,29.8,25.3,30.04,NE,48,4.0,5.8,83,0.00,,,0.00,VWS V13.01,2013-02-21 07:59:00,
2013-02-21 02:04:00,29.8,25.3,30.04,NE,48,3.6,4.9,83,0.00,,,0.00,VWS V13.01,2013-02-21 08:04:00,
2013-02-21 02:09:00,29.8,25.6,30.04,NE,48,5.4,5.4,84,0.00,,,0.00,VWS V13.01,2013-02-21 08:09:00,
2013-02-21 02:14:00,29.8,25.9,30.04,NE,48,4.0,4.0,85,0.00,,,0.00,VWS V13.01,2013-02-21 08:14:00,
2013-02-21 02:19:00,29.6,25.7,30.04,NE,48,4.0,4.0,85,0.00,,,0.00,VWS V13.01,2013-02-21 08:19:00,
2013-02-21 02:24:00,29.8,26.1,30.04,NE,48,2.7,3.1,86,0.00,,,0.00,VWS V13.01,2013-02-21 08:24:00,
2013-02-21 02:29:00,29.8,25.9,30.04,NE,48,2.7,3.1,85,0.00,,,0.00,VWS V13.01,2013-02-21 08:29:00,
2013-02-21 02:34:00,29.8,25.9,30.04,NE,48,2.7,3.1,85,0.00,,,0.00,VWS V13.01,2013-02-21 08:34:00,
2013-02-21 02:39:00,29.8,25.3,30.04,NE,48,3.6,4.9,83,0.00,,,0.00,VWS V13.01,2013-02-21 08:39:00,
2013-02-21 02:44:00,30.0,24.9,30.01,NE,48,3.1,3.6,81,0.00,,,0.00,VWS V13.01,2013-02-21 08:44:00,
2013-02-21 02:49:00,30.0,24.6,30.01,NE,48,5.4,5.8,80,0.00,,,0.00,VWS V13.01,2013-02-21 08:49:00,
2013-02-21 02:54:00,30.0,24.9,30.01,NE,48,3.1,3.6,81,0.00,,,0.00,VWS V13.01,2013-02-21 08:54:00,
2013-02-21 02:59:00,30.0,25.2,30.01,NE,48,3.1,4.0,82,0.00,,,0.00,VWS V13.01,2013-02-21 08:59:00,
2013-02-21 03:04:00,30.0,25.2,30.01,NE,48,5.8,5.8,82,0.00,,,0.00,VWS V13.01,2013-02-21 09:04:00,
2013-02-21 03:09:00,30.0,25.2,30.01,NE,48,3.1,4.9,82,0.00,,,0.00,VWS V13.01,2013-02-21 09:09:00,
2013-02-21 03:14:00,30.0,25.5,30.01,NE,48,4.9,4.9,83,0.00,,,0.00,VWS V13.01,2013-02-21 09:14:00,
2013-02-21 03:19:00,30.0,25.5,30.01,NE,48,5.4,6.3,83,0.00,,,0.00,VWS V13.01,2013-02-21 09:19:00,
2013-02-21 03:24:00,30.0,25.8,30.01,NE,48,3.6,3.6,84,0.00,,,0.00,VWS V13.01,2013-02-21 09:24:00,
2013-02-21 03:29:00,29.8,25.6,29.98,NE,48,5.8,6.3,84,0.00,,,0.00,VWS V13.01,2013-02-21 09:29:00,
2013-02-21 03:34:00,29.8,25.6,29.98,NE,48,5.4,5.4,84,0.00,,,0.00,VWS V13.01,2013-02-21 09:34:00,
2013-02-21 03:39:00,29.8,25.6,29.98,NE,48,4.9,5.8,84,0.00,,,0.00,VWS V13.01,2013-02-21 09:39:00,
2013-02-21 03:44:00,29.6,25.7,29.95,NE,48,4.5,5.8,85,0.00,,,0.00,VWS V13.01,2013-02-21 09:44:00,
2013-02-21 03:49:00,29.6,25.7,29.95,NE,48,5.8,7.6,85,0.00,,,0.00,VWS V13.01,2013-02-21 09:49:00,
2013-02-21 03:54:00,29.8,25.9,29.95,NE,48,4.9,5.4,85,0.00,,,0.00,VWS V13.01,2013-02-21 09:54:00,
2013-02-21 03:59:00,29.8,25.9,29.98,NE,48,2.7,3.6,85,0.00,,,0.00,VWS V13.01,2013-02-21 09:59:00,
2013-02-21 04:04:00,29.8,25.9,29.98,NE,48,3.6,3.6,85,0.00,,,0.00,VWS V13.01,2013-02-21 10:04:00,
2013-02-21 04:09:00,29.8,25.9,29.98,NE,48,3.1,3.6,85,0.00,,,0.00,VWS V13.01,2013-02-21 10:09:00,
2013-02-21 04:14:00,29.8,25.9,29.95,NE,48,4.0,4.0,85,0.00,,,0.00,VWS V13.01,2013-02-21 10:14:00,
2013-02-21 04:19:00,29.8,25.6,29.95,NE,48,3.1,4.9,84,0.00,,,0.00,VWS V13.01,2013-02-21 10:19:00,
2013-02-21 04:24:00,29.8,25.9,29.95,NE,48,3.1,5.4,85,0.00,,,0.00,VWS V13.01,2013-02-21 10:24:00,
2013-02-21 04:29:00,29.6,25.1,29.95,NE,48,5.8,8.1,83,0.00,,,0.00,VWS V13.01,2013-02-21 10:29:00,
2013-02-21 04:34:00,29.6,25.1,29.95,NE,48,6.3,6.3,83,0.00,,,0.00,VWS V13.01,2013-02-21 10:34:00,
2013-02-21 04:39:00,29.6,24.2,29.95,NE,48,4.9,10.1,80,0.00,,,0.00,VWS V13.01,2013-02-21 10:39:00,
2013-02-21 04:44:00,29.6,24.5,29.92,NE,48,5.4,5.8,81,0.00,,,0.00,VWS V13.01,2013-02-21 10:44:00,
2013-02-21 04:49:00,29.6,24.5,29.92,NE,48,5.4,5.4,81,0.00,,,0.00,VWS V13.01,2013-02-21 10:49:00,
2013-02-21 04:54:00,29.6,24.2,29.92,NE,48,7.2,7.6,80,0.00,,,0.00,VWS V13.01,2013-02-21 10:54:00,
2013-02-21 04:59:00,29.6,24.2,29.95,NE,48,5.4,5.8,80,0.00,,,0.00,VWS V13.01,2013-02-21 10:59:00,
2013-02-21 05:04:00,29.6,23.9,29.95,NE,48,4.9,10.1,79,0.00,,,0.00,VWS V13.01,2013-02-21 11:04:00,
2013-02-21 05:09:00,29.6,24.2,29.95,NE,48,5.4,6.3,80,0.00,,,0.00,VWS V13.01,2013-02-21 11:09:00,
2013-02-21 05:14:00,29.6,23.9,29.92,NE,48,5.8,6.7,79,0.00,,,0.00,VWS V13.01,2013-02-21 11:14:00,
2013-02-21 05:19:00,29.6,24.2,29.92,NE,49,8.1,8.1,80,0.00,,,0.00,VWS V13.01,2013-02-21 11:19:00,
2013-02-21 05:24:00,29.8,24.1,29.92,NE,49,5.4,5.4,79,0.00,,,0.00,VWS V13.01,2013-02-21 11:24:00,
2013-02-21 05:29:00,29.8,24.1,29.92,NE,50,4.9,8.1,79,0.00,,,0.00,VWS V13.01,2013-02-21 11:29:00,
2013-02-21 05:34:00,29.8,23.8,29.92,ENE,62,10.5,10.5,78,0.00,,,0.00,VWS V13.01,2013-02-21 11:34:00,
2013-02-21 05:39:00,30.0,24.6,29.92,East,81,5.8,10.5,80,0.00,,,0.00,VWS V13.01,2013-02-21 11:39:00,
2013-02-21 05:44:00,29.8,24.4,29.92,East,80,5.8,10.5,80,0.00,,,0.00,VWS V13.01,2013-02-21 11:44:00,
2013-02-21 05:49:00,29.8,24.4,29.92,East,80,10.1,15.4,80,0.00,,,0.00,VWS V13.01,2013-02-21 11:49:00,
2013-02-21 05:54:00,29.6,24.8,29.92,East,80,6.3,8.3,82,0.00,,,0.00,VWS V13.01,2013-02-21 11:54:00,
2013-02-21 05:59:00,29.6,25.4,29.92,East,81,7.6,11.9,84,0.00,,,0.00,VWS V13.01,2013-02-21 11:59:00,
2013-02-21 06:04:00,29.6,26.2,29.92,NE,52,3.1,4.5,87,0.00,,,0.00,VWS V13.01,2013-02-21 12:04:00,
2013-02-21 06:09:00,29.5,26.9,29.92,NE,52,4.0,6.3,90,0.00,,,0.00,VWS V13.01,2013-02-21 12:09:00,
2013-02-21 06:14:00,29.5,27.4,29.92,NE,52,5.4,6.3,92,0.00,,,0.00,VWS V13.01,2013-02-21 12:14:00,
2013-02-21 06:19:00,29.3,27.5,29.92,NE,52,0.0,0.0,93,0.00,,,0.00,VWS V13.01,2013-02-21 12:19:00,
2013-02-21 06:24:00,29.3,27.2,29.92,NE,52,0.0,0.0,92,0.00,,,0.00,VWS V13.01,2013-02-21 12:24:00,
2013-02-21 06:29:00,29.5,27.2,29.89,NE,52,0.0,0.0,91,0.00,,,0.00,VWS V13.01,2013-02-21 12:29:00,
2013-02-21 06:34:00,29.5,27.2,29.89,NE,52,0.0,0.0,91,0.00,,,0.00,VWS V13.01,2013-02-21 12:34:00,
2013-02-21 06:39:00,29.5,27.2,29.89,NE,52,0.0,0.0,91,0.00,,,0.00,VWS V13.01,2013-02-21 12:39:00,
2013-02-21 06:44:00,29.5,27.2,29.89,NE,52,0.0,0.0,91,0.00,,,0.00,VWS V13.01,2013-02-21 12:44:00,
2013-02-21 06:49:00,29.5,26.9,29.89,NE,52,0.0,0.0,90,0.00,,,0.00,VWS V13.01,2013-02-21 12:49:00,
2013-02-21 06:54:00,29.6,26.8,29.89,NE,52,0.0,0.0,89,0.00,,,0.00,VWS V13.01,2013-02-21 12:54:00,
2013-02-21 06:59:00,29.6,26.5,29.89,NE,52,0.0,0.0,88,0.00,,,0.00,VWS V13.01,2013-02-21 12:59:00,
2013-02-21 07:04:00,29.6,26.5,29.89,NE,52,0.0,0.0,88,0.00,,,0.00,VWS V13.01,2013-02-21 13:04:00,
2013-02-21 07:09:00,29.8,26.4,29.89,NE,52,0.0,0.0,87,0.00,,,0.00,VWS V13.01,2013-02-21 13:09:00,
2013-02-21 07:14:00,29.8,26.4,29.89,NE,52,0.0,0.0,87,0.00,,,0.00,VWS V13.01,2013-02-21 13:14:00,
2013-02-21 07:19:00,29.8,26.4,29.89,NE,52,0.0,0.0,87,0.00,,,0.00,VWS V13.01,2013-02-21 13:19:00,
2013-02-21 07:24:00,30.0,26.9,29.89,NE,52,0.0,0.0,88,0.00,,,0.00,VWS V13.01,2013-02-21 13:24:00,
2013-02-21 07:29:00,30.0,26.9,29.86,NE,52,0.0,0.0,88,0.00,,,0.00,VWS V13.01,2013-02-21 13:29:00,
2013-02-21 07:34:00,30.0,26.9,29.86,NE,52,0.0,0.0,88,0.00,,,0.00,VWS V13.01,2013-02-21 13:34:00,
2013-02-21 07:39:00,30.0,26.9,29.86,NE,52,0.0,0.0,88,0.00,,,0.00,VWS V13.01,2013-02-21 13:39:00,
2013-02-21 07:44:00,30.0,26.0,29.86,NE,52,0.0,0.0,85,0.00,,,0.00,VWS V13.01,2013-02-21 13:44:00,
2013-02-21 07:49:00,30.2,26.5,29.86,NE,52,0.0,0.0,86,0.00,,,0.00,VWS V13.01,2013-02-21 13:49:00,
2013-02-21 07:54:00,30.2,26.2,29.86,NE,52,0.0,0.0,85,0.00,,,0.00,VWS V13.01,2013-02-21 13:54:00,
2013-02-21 07:59:00,30.2,25.9,29.86,NE,52,0.0,0.0,84,0.00,,,0.00,VWS V13.01,2013-02-21 13:59:00,
2013-02-21 08:03:00,30.2,25.9,29.86,NE,52,0.0,0.0,84,0.00,,,0.00,VWS V13.01,2013-02-21 14:03:00,
2013-02-21 08:08:00,30.2,25.4,29.86,NE,52,0.0,0.0,82,0.00,,,0.00,VWS V13.01,2013-02-21 14:08:00,
2013-02-21 08:13:00,30.4,24.9,29.86,NE,52,0.0,0.0,80,0.00,,,0.00,VWS V13.01,2013-02-21 14:13:00,
2013-02-21 08:18:00,30.4,24.6,29.86,NE,52,0.0,0.0,79,0.00,,,0.00,VWS V13.01,2013-02-21 14:18:00,
2013-02-21 08:23:00,30.5,24.5,29.86,NE,52,0.0,0.0,78,0.00,,,0.00,VWS V13.01,2013-02-21 14:23:00,
2013-02-21 08:28:00,30.5,24.2,29.86,NE,52,0.0,0.0,77,0.00,,,0.00,VWS V13.01,2013-02-21 14:28:00,
2013-02-21 08:33:00,30.7,24.4,29.86,NE,52,0.0,0.0,77,0.00,,,0.00,VWS V13.01,2013-02-21 14:33:00,
2013-02-21 08:38:00,30.7,23.8,29.86,NE,52,0.0,0.0,75,0.00,,,0.00,VWS V13.01,2013-02-21 14:38:00,
2013-02-21 08:43:00,30.7,25.6,29.83,NE,53,0.0,0.0,81,0.00,,,0.00,VWS V13.01,2013-02-21 14:43:00,
2013-02-21 08:48:00,30.5,26.3,29.83,NE,53,0.0,0.0,84,0.00,,,0.00,VWS V13.01,2013-02-21 14:48:00,
2013-02-21 08:53:00,30.5,25.4,29.83,NE,53,0.0,0.0,81,0.00,,,0.00,VWS V13.01,2013-02-21 14:53:00,
2013-02-21 08:58:00,30.5,26.6,29.83,NE,54,0.0,0.0,85,0.00,,,0.00,VWS V13.01,2013-02-21 14:58:00,
2013-02-21 09:03:00,30.4,26.7,29.80,NE,54,0.0,0.0,86,0.00,,,0.00,VWS V13.01,2013-02-21 15:03:00,
2013-02-21 09:08:00,30.4,26.4,29.80,NE,54,0.0,0.0,85,0.00,,,0.00,VWS V13.01,2013-02-21 15:08:00,
2013-02-21 09:13:00,30.4,26.4,29.83,NE,54,0.0,0.0,85,0.00,,,0.00,VWS V13.01,2013-02-21 15:13:00,
2013-02-21 09:18:00,30.2,26.5,29.83,NE,54,0.0,0.0,86,0.00,,,0.00,VWS V13.01,2013-02-21 15:18:00,
2013-02-21 09:23:00,30.2,26.8,29.83,NE,54,0.0,0.0,87,0.00,,,0.00,VWS V13.01,2013-02-21 15:23:00,
2013-02-21 09:28:00,30.2,26.5,29.83,NE,54,0.0,0.0,86,0.00,,,0.00,VWS V13.01,2013-02-21 15:28:00,
2013-02-21 09:33:00,30.4,26.7,29.83,NE,54,0.0,0.0,86,0.00,,,0.00,VWS V13.01,2013-02-21 15:33:00,
2013-02-21 09:38:00,30.4,27.0,29.83,NE,54,0.0,0.0,87,0.00,,,0.00,VWS V13.01,2013-02-21 15:38:00,
2013-02-21 09:43:00,30.4,27.2,29.80,NE,54,0.0,0.0,88,0.00,,,0.00,VWS V13.01,2013-02-21 15:43:00,
2013-02-21 09:48:00,30.4,27.2,29.80,NE,54,0.0,0.0,88,0.00,,,0.00,VWS V13.01,2013-02-21 15:48:00,
2013-02-21 09:53:00,30.4,27.2,29.80,NE,54,0.0,0.0,88,0.00,,,0.00,VWS V13.01,2013-02-21 15:53:00,
2013-02-21 09:58:00,30.5,27.4,29.80,NE,54,0.0,0.0,88,0.00,,,0.00,VWS V13.01,2013-02-21 15:58:00,
2013-02-21 10:03:00,30.5,27.4,29.80,NE,54,0.0,0.0,88,0.00,,,0.00,VWS V13.01,2013-02-21 16:03:00,
2013-02-21 10:08:00,30.7,27.9,29.80,NE,54,0.0,0.0,89,0.00,,,0.00,VWS V13.01,2013-02-21 16:08:00,
2013-02-21 10:13:00,30.5,28.0,29.80,NE,54,0.0,0.0,90,0.00,,,0.00,VWS V13.01,2013-02-21 16:13:00,
2013-02-21 10:18:00,30.5,28.5,29.80,NE,54,0.0,0.0,92,0.04,,,0.04,VWS V13.01,2013-02-21 16:18:00,
2013-02-21 10:23:00,30.5,29.0,29.80,NE,54,0.0,0.0,94,0.04,,,0.04,VWS V13.01,2013-02-21 16:23:00,
2013-02-21 10:28:00,30.5,29.3,29.80,NE,54,0.0,0.0,95,0.04,,,0.04,VWS V13.01,2013-02-21 16:28:00,
2013-02-21 10:33:00,30.5,29.5,29.80,NE,54,0.0,0.0,96,0.04,,,0.04,VWS V13.01,2013-02-21 16:33:00,
2013-02-21 10:38:00,30.5,29.8,29.80,NE,54,0.0,0.0,97,0.04,,,0.04,VWS V13.01,2013-02-21 16:38:00,
2013-02-21 10:43:00,30.5,29.8,29.86,NE,54,0.0,0.0,97,0.08,,,0.08,VWS V13.01,2013-02-21 16:43:00,
2013-02-21 10:48:00,30.5,29.8,29.86,NE,54,0.0,0.0,97,0.08,,,0.08,VWS V13.01,2013-02-21 16:48:00,
2013-02-21 10:53:00,30.5,29.8,29.86,NE,54,0.0,0.0,97,0.16,,,0.16,VWS V13.01,2013-02-21 16:53:00,
2013-02-21 10:58:00,30.5,29.8,29.86,NE,54,0.0,0.0,97,0.16,,,0.16,VWS V13.01,2013-02-21 16:58:00,
2013-02-21 11:03:00,30.7,30.2,29.86,NE,54,0.0,0.0,98,0.16,,,0.16,VWS V13.01,2013-02-21 17:03:00,
2013-02-21 11:08:00,30.7,30.2,29.86,NE,54,0.0,0.0,98,0.16,,,0.16,VWS V13.01,2013-02-21 17:08:00,
2013-02-21 11:13:00,30.7,30.2,29.86,NE,54,0.0,0.0,98,0.20,,,0.20,VWS V13.01,2013-02-21 17:13:00,
2013-02-21 11:18:00,30.7,30.2,29.89,NE,54,0.0,0.0,98,0.16,,,0.20,VWS V13.01,2013-02-21 17:18:00,
2013-02-21 11:23:00,30.7,30.2,29.89,NE,54,0.0,0.0,98,0.20,,,0.24,VWS V13.01,2013-02-21 17:23:00,
2013-02-21 11:28:00,30.7,30.5,29.89,NE,54,0.0,0.0,99,0.20,,,0.24,VWS V13.01,2013-02-21 17:28:00,
2013-02-21 11:33:00,30.7,30.7,29.89,NE,52,0.0,0.0,100,0.20,,,0.24,VWS V13.01,2013-02-21 17:33:00,
2013-02-21 11:38:00,30.7,30.7,29.89,NE,51,0.0,0.0,100,0.20,,,0.24,VWS V13.01,2013-02-21 17:38:00,
2013-02-21 11:43:00,30.9,30.9,29.89,NE,43,0.0,0.0,100,0.16,,,0.24,VWS V13.01,2013-02-21 17:43:00,
2013-02-21 11:48:00,30.7,30.7,29.86,NE,42,0.0,0.0,100,0.16,,,0.24,VWS V13.01,2013-02-21 17:48:00,
2013-02-21 11:53:00,30.7,30.7,29.86,NE,44,0.0,0.0,100,0.08,,,0.24,VWS V13.01,2013-02-21 17:53:00,
2013-02-21 11:58:00,30.7,30.7,29.86,NE,39,0.0,0.0,100,0.08,,,0.24,VWS V13.01,2013-02-21 17:58:00,
2013-02-21 12:03:00,30.7,30.7,29.86,NE,48,0.0,0.0,100,0.08,,,0.24,VWS V13.01,2013-02-21 18:03:00,
2013-02-21 12:08:00,30.7,30.7,29.86,NE,44,0.0,0.0,100,0.08,,,0.24,VWS V13.01,2013-02-21 18:08:00,
2013-02-21 12:13:00,30.7,30.7,29.86,NNE,28,0.0,0.0,100,0.04,,,0.24,VWS V13.01,2013-02-21 18:13:00,
2013-02-21 12:18:00,30.9,30.9,29.86,NNE,30,0.0,0.0,100,0.04,,,0.24,VWS V13.01,2013-02-21 18:18:00,
2013-02-21 12:23:00,30.9,30.9,29.86,ENE,64,0.0,0.0,100,0.00,,,0.24,VWS V13.01,2013-02-21 18:23:00,
2013-02-21 12:28:00,30.9,30.9,29.86,NE,43,0.0,0.0,100,0.00,,,0.24,VWS V13.01,2013-02-21 18:28:00,
2013-02-21 12:33:00,30.9,30.9,29.83,NE,46,0.0,0.0,100,0.00,,,0.24,VWS V13.01,2013-02-21 18:33:00,
2013-02-21 12:38:00,30.9,30.9,29.83,ENE,62,0.0,0.0,100,0.00,,,0.24,VWS V13.01,2013-02-21 18:38:00,
2013-02-21 12:43:00,31.1,31.1,29.83,NE,44,0.0,0.0,100,0.00,,,0.24,VWS V13.01,2013-02-21 18:43:00,
2013-02-21 12:48:00,31.1,31.1,29.83,NE,44,0.0,0.0,100,0.00,,,0.24,VWS V13.01,2013-02-21 18:48:00,
2013-02-21 12:53:00,31.1,31.1,29.83,NE,44,0.0,0.0,100,0.00,,,0.24,VWS V13.01,2013-02-21 18:53:00,
2013-02-21 12:58:00,31.1,31.1,29.83,NE,34,0.0,0.0,100,0.00,,,0.24,VWS V13.01,2013-02-21 18:58:00,
2013-02-21 13:03:00,31.1,31.1,29.80,NNE,25,0.0,0.0,100,0.00,,,0.24,VWS V13.01,2013-02-21 19:03:00,
2013-02-21 13:08:00,31.3,31.3,29.80,ENE,57,0.0,0.0,100,0.00,,,0.24,VWS V13.01,2013-02-21 19:08:00,
2013-02-21 13:13:00,31.3,31.3,29.80,NE,42,0.0,0.0,100,0.00,,,0.24,VWS V13.01,2013-02-21 19:13:00,
2013-02-21 13:18:00,31.3,31.3,29.80,NE,49,0.0,0.0,100,0.00,,,0.24,VWS V13.01,2013-02-21 19:18:00,
2013-02-21 13:23:00,31.3,31.3,29.80,NE,42,0.0,0.0,100,0.00,,,0.24,VWS V13.01,2013-02-21 19:23:00,
2013-02-21 13:28:00,31.3,31.3,29.80,NNE,29,0.0,0.0,100,0.00,,,0.24,VWS V13.01,2013-02-21 19:28:00,
2013-02-21 13:33:00,31.3,31.3,29.78,ENE,70,0.0,0.0,100,0.00,,,0.24,VWS V13.01,2013-02-21 19:33:00,
2013-02-21 13:38:00,31.3,31.3,29.78,East,95,0.0,0.0,100,0.00,,,0.24,VWS V13.01,2013-02-21 19:38:00,
2013-02-21 13:43:00,31.3,31.3,29.78,NE,52,0.0,0.0,100,0.00,,,0.24,VWS V13.01,2013-02-21 19:43:00,
2013-02-21 13:48:00,31.4,31.4,29.78,NE,40,0.0,0.0,100,0.00,,,0.24,VWS V13.01,2013-02-21 19:48:00,
2013-02-21 13:53:00,31.4,31.4,29.78,ENE,73,3.1,3.1,100,0.00,,,0.24,VWS V13.01,2013-02-21 19:53:00,
2013-02-21 13:58:00,31.6,31.6,29.78,ENE,61,3.6,4.0,100,0.00,,,0.24,VWS V13.01,2013-02-21 19:58:00,
2013-02-21 14:03:00,31.6,31.6,29.78,ENE,69,4.0,4.0,100,0.00,,,0.24,VWS V13.01,2013-02-21 20:03:00,
2013-02-21 14:08:00,31.6,31.6,29.78,ENE,71,5.4,5.4,100,0.00,,,0.24,VWS V13.01,2013-02-21 20:08:00,
2013-02-21 14:13:00,31.6,31.6,29.78,NE,49,4.0,5.8,100,0.00,,,0.24,VWS V13.01,2013-02-21 20:13:00,
2013-02-21 14:18:00,31.6,31.6,29.75,NE,47,4.9,4.9,100,0.00,,,0.24,VWS V13.01,2013-02-21 20:18:00,
2013-02-21 14:23:00,31.6,31.6,29.75,NNE,23,4.9,5.4,100,0.00,,,0.24,VWS V13.01,2013-02-21 20:23:00,
2013-02-21 14:28:00,31.6,31.6,29.75,ENE,73,4.9,6.7,100,0.00,,,0.24,VWS V13.01,2013-02-21 20:28:00,
2013-02-21 14:33:00,31.6,31.6,29.75,NE,34,5.8,5.8,100,0.00,,,0.24,VWS V13.01,2013-02-21 20:33:00,
2013-02-21 14:38:00,31.8,31.8,29.75,ENE,65,5.8,6.7,100,0.00,,,0.24,VWS V13.01,2013-02-21 20:38:00,
2013-02-21 14:43:00,31.8,31.8,29.75,ENE,68,2.7,4.0,100,0.00,,,0.24,VWS V13.01,2013-02-21 20:43:00,
2013-02-21 14:48:00,31.8,31.8,29.75,ENE,74,2.7,4.9,100,0.00,,,0.24,VWS V13.01,2013-02-21 20:48:00,
2013-02-21 14:53:00,31.8,31.8,29.75,NE,48,4.9,4.9,100,0.00,,,0.24,VWS V13.01,2013-02-21 20:53:00,
2013-02-21 14:58:00,32.0,32.0,29.75,East,87,3.1,4.9,100,0.00,,,0.24,VWS V13.01,2013-02-21 20:58:00,
2013-02-21 15:03:00,32.0,32.0,29.75,ENE,65,5.4,5.4,100,0.00,,,0.24,VWS V13.01,2013-02-21 21:03:00,
2013-02-21 15:08:00,32.0,32.0,29.75,East,101,3.1,5.4,100,0.00,,,0.24,VWS V13.01,2013-02-21 21:08:00,
2013-02-21 15:13:00,32.0,32.0,29.75,NNE,26,3.1,3.6,100,0.00,,,0.24,VWS V13.01,2013-02-21 21:13:00,
2013-02-21 15:18:00,32.0,32.0,29.78,ENE,65,6.3,6.3,100,0.00,,,0.24,VWS V13.01,2013-02-21 21:18:00,
2013-02-21 15:23:00,32.0,32.0,29.78,ENE,65,3.1,3.6,100,0.04,,,0.28,VWS V13.01,2013-02-21 21:23:00,
2013-02-21 15:28:00,32.0,32.0,29.78,ENE,58,4.9,6.3,100,0.04,,,0.28,VWS V13.01,2013-02-21 21:28:00,
2013-02-21 15:33:00,32.2,32.2,29.78,ENE,74,5.4,5.8,100,0.04,,,0.28,VWS V13.01,2013-02-21 21:33:00,
2013-02-21 15:38:00,32.2,32.2,29.78,East,91,6.3,6.3,100,0.04,,,0.28,VWS V13.01,2013-02-21 21:38:00,
2013-02-21 15:43:00,32.2,32.2,29.78,ENE,57,4.0,7.6,100,0.04,,,0.28,VWS V13.01,2013-02-21 21:43:00,
2013-02-21 15:48:00,32.2,32.2,29.78,ENE,62,2.7,4.9,100,0.04,,,0.28,VWS V13.01,2013-02-21 21:48:00,
2013-02-21 15:53:00,32.2,32.2,29.78,ENE,63,3.1,3.1,100,0.04,,,0.28,VWS V13.01,2013-02-21 21:53:00,
2013-02-21 15:58:00,32.2,32.2,29.78,ENE,70,8.7,8.7,100,0.04,,,0.28,VWS V13.01,2013-02-21 21:58:00,
2013-02-21 16:03:00,32.2,32.2,29.78,NE,52,3.1,5.4,100,0.04,,,0.28,VWS V13.01,2013-02-21 22:03:00,
2013-02-21 16:08:00,32.2,32.2,29.78,ENE,62,5.8,6.7,100,0.04,,,0.28,VWS V13.01,2013-02-21 22:08:00,
2013-02-21 16:13:00,32.2,32.2,29.78,ENE,65,0.0,0.0,100,0.04,,,0.28,VWS V13.01,2013-02-21 22:13:00,
2013-02-21 16:18:00,32.3,32.3,29.78,ENE,66,2.2,3.6,100,0.04,,,0.28,VWS V13.01,2013-02-21 22:18:00,
2013-02-21 16:23:00,32.3,32.3,29.78,East,88,2.7,3.6,100,0.00,,,0.28,VWS V13.01,2013-02-21 22:23:00,
2013-02-21 16:28:00,32.3,32.3,29.78,NE,55,2.7,3.1,100,0.00,,,0.28,VWS V13.01,2013-02-21 22:28:00,
2013-02-21 16:33:00,32.3,32.3,29.78,East,85,2.7,3.1,100,0.00,,,0.28,VWS V13.01,2013-02-21 22:33:00,
2013-02-21 16:38:00,32.3,32.3,29.78,ENE,59,2.7,3.1,100,0.00,,,0.28,VWS V13.01,2013-02-21 22:38:00,
2013-02-21 16:43:00,32.3,32.3,29.78,East,85,3.1,3.1,100,0.00,,,0.28,VWS V13.01,2013-02-21 22:43:00,
2013-02-21 16:48:00,32.3,32.3,29.78,East,79,4.0,4.0,100,0.04,,,0.31,VWS V13.01,2013-02-21 22:48:00,
2013-02-21 16:53:00,32.3,32.3,29.78,East,94,4.0,4.0,100,0.04,,,0.31,VWS V13.01,2013-02-21 22:53:00,
2013-02-21 16:58:00,32.3,32.3,29.78,ENE,71,0.0,0.0,100,0.04,,,0.31,VWS V13.01,2013-02-21 22:58:00,
2013-02-21 17:03:00,32.3,32.3,29.78,ENE,59,3.1,3.6,100,0.04,,,0.31,VWS V13.01,2013-02-21 23:03:00,
2013-02-21 17:07:00,32.3,32.3,29.78,ENE,74,2.2,2.7,100,0.04,,,0.31,VWS V13.01,2013-02-21 23:07:00,
2013-02-21 17:12:00,32.3,32.3,29.78,ENE,65,0.0,2.2,100,0.04,,,0.31,VWS V13.01,2013-02-21 23:12:00,
2013-02-21 17:17:00,32.3,32.3,29.78,ENE,61,0.0,0.0,100,0.04,,,0.31,VWS V13.01,2013-02-21 23:17:00,
2013-02-21 17:22:00,32.3,32.3,29.78,ENE,61,0.0,0.0,100,0.04,,,0.31,VWS V13.01,2013-02-21 23:22:00,
2013-02-21 17:27:00,32.3,32.3,29.78,NE,48,2.7,2.7,100,0.04,,,0.31,VWS V13.01,2013-02-21 23:27:00,
2013-02-21 17:32:00,32.3,32.3,29.78,NE,49,0.0,0.0,100,0.04,,,0.31,VWS V13.01,2013-02-21 23:32:00,
2013-02-21 17:37:00,32.3,32.3,29.78,ENE,68,0.0,0.0,100,0.04,,,0.31,VWS V13.01,2013-02-21 23:37:00,
2013-02-21 17:42:00,32.3,32.3,29.78,ENE,68,0.0,0.0,100,0.04,,,0.31,VWS V13.01,2013-02-21 23:42:00,
2013-02-21 17:47:00,32.3,32.3,29.80,ENE,68,0.0,0.0,100,0.00,,,0.31,VWS V13.01,2013-02-21 23:47:00,
2013-02-21 17:52:00,32.5,32.5,29.80,ENE,57,0.0,0.0,100,0.00,,,0.31,VWS V13.01,2013-02-21 23:52:00,
2013-02-21 17:57:00,32.5,32.5,29.80,West,269,3.1,3.1,100,0.00,,,0.31,VWS V13.01,2013-02-21 23:57:00,
2013-02-21 18:02:00,32.5,32.5,29.80,East,81,3.6,3.6,100,0.00,,,0.31,VWS V13.01,2013-02-22 00:02:00,
2013-02-21 18:07:00,32.5,32.5,29.80,East,81,0.0,0.0,100,0.00,,,0.31,VWS V13.01,2013-02-22 00:07:00,
2013-02-21 18:12:00,32.5,32.5,29.80,East,81,0.0,0.0,100,0.00,,,0.31,VWS V13.01,2013-02-22 00:12:00,
2013-02-21 18:17:00,32.5,32.5,29.83,East,81,0.0,0.0,100,0.00,,,0.31,VWS V13.01,2013-02-22 00:17:00,
2013-02-21 18:22:00,32.5,32.5,29.83,East,81,0.0,0.0,100,0.00,,,0.31,VWS V13.01,2013-02-22 00:22:00,
2013-02-21 18:27:00,32.5,32.5,29.83,SE,138,0.0,0.0,100,0.00,,,0.31,VWS V13.01,2013-02-22 00:27:00,
2013-02-21 18:32:00,32.5,32.5,29.83,East,81,3.1,3.1,100,0.00,,,0.31,VWS V13.01,2013-02-22 00:32:00,
2013-02-21 18:37:00,32.5,32.5,29.83,SW,221,0.0,0.0,100,0.00,,,0.31,VWS V13.01,2013-02-22 00:37:00,
2013-02-21 18:42:00,32.5,32.5,29.83,East,94,0.0,0.0,100,0.00,,,0.31,VWS V13.01,2013-02-22 00:42:00,
2013-02-21 18:47:00,32.5,32.5,29.83,East,94,0.0,0.0,100,0.00,,,0.31,VWS V13.01,2013-02-22 00:47:00,
2013-02-21 18:52:00,32.5,32.5,29.83,NE,54,0.0,0.0,100,0.00,,,0.31,VWS V13.01,2013-02-22 00:52:00,
2013-02-21 18:57:00,32.5,32.5,29.83,NE,54,0.0,0.0,100,0.00,,,0.31,VWS V13.01,2013-02-22 00:57:00,
2013-02-21 19:02:00,32.5,32.5,29.83,NE,54,0.0,0.0,100,0.00,,,0.31,VWS V13.01,2013-02-22 01:02:00,
2013-02-21 19:07:00,32.5,32.5,29.83,NNE,33,3.6,4.0,100,0.00,,,0.31,VWS V13.01,2013-02-22 01:07:00,
2013-02-21 19:12:00,32.5,32.5,29.83,NNE,21,3.6,3.6,100,0.04,,,0.35,VWS V13.01,2013-02-22 01:12:00,
2013-02-21 19:17:00,32.5,32.5,29.83,North,11,0.0,0.0,100,0.04,,,0.35,VWS V13.01,2013-02-22 01:17:00,
2013-02-21 19:22:00,32.5,32.5,29.83,NNE,17,0.0,2.2,100,0.04,,,0.35,VWS V13.01,2013-02-22 01:22:00,
2013-02-21 19:27:00,32.5,32.5,29.83,NNE,33,4.0,4.0,100,0.04,,,0.35,VWS V13.01,2013-02-22 01:27:00,
2013-02-21 19:32:00,32.5,32.5,29.83,NE,52,3.1,3.1,100,0.04,,,0.35,VWS V13.01,2013-02-22 01:32:00,
2013-02-21 19:37:00,32.5,32.5,29.83,NE,56,3.6,3.6,100,0.04,,,0.35,VWS V13.01,2013-02-22 01:37:00,
2013-02-21 19:42:00,32.5,32.5,29.83,NE,42,2.7,2.7,100,0.04,,,0.35,VWS V13.01,2013-02-22 01:42:00,
2013-02-21 19:47:00,32.5,32.5,29.83,ENE,60,0.0,0.0,100,0.04,,,0.35,VWS V13.01,2013-02-22 01:47:00,
2013-02-21 19:52:00,32.3,32.3,29.83,ENE,60,0.0,0.0,100,0.04,,,0.35,VWS V13.01,2013-02-22 01:52:00,
2013-02-21 19:57:00,32.5,32.5,29.83,ENE,74,0.0,0.0,100,0.04,,,0.35,VWS V13.01,2013-02-22 01:57:00,
2013-02-21 20:02:00,32.5,32.5,29.83,ENE,61,3.6,3.6,100,0.04,,,0.35,VWS V13.01,2013-02-22 02:02:00,
2013-02-21 20:07:00,32.5,32.5,29.83,East,89,2.7,2.7,100,0.04,,,0.35,VWS V13.01,2013-02-22 02:07:00,
2013-02-21 20:12:00,32.3,32.3,29.83,ESE,103,2.2,2.7,100,0.04,,,0.35,VWS V13.01,2013-02-22 02:12:00,
2013-02-21 20:17:00,32.5,32.5,29.86,ESE,103,0.0,0.0,100,0.00,,,0.35,VWS V13.01,2013-02-22 02:17:00,
2013-02-21 20:22:00,32.5,32.5,29.86,ESE,103,0.0,0.0,100,0.00,,,0.35,VWS V13.01,2013-02-22 02:22:00,
2013-02-21 20:27:00,32.5,32.5,29.86,ESE,103,0.0,0.0,100,0.00,,,0.35,VWS V13.01,2013-02-22 02:27:00,
2013-02-21 20:32:00,32.5,32.5,29.86,ESE,103,0.0,0.0,100,0.00,,,0.35,VWS V13.01,2013-02-22 02:32:00,
2013-02-21 20:37:00,32.5,32.5,29.86,ENE,63,2.2,2.2,100,0.00,,,0.35,VWS V13.01,2013-02-22 02:37:00,
2013-02-21 20:42:00,32.5,32.5,29.86,NE,53,0.0,0.0,100,0.00,,,0.35,VWS V13.01,2013-02-22 02:42:00,
2013-02-21 20:47:00,32.5,32.5,29.86,NE,54,0.0,0.0,100,0.00,,,0.35,VWS V13.01,2013-02-22 02:47:00,
2013-02-21 20:52:00,32.5,32.5,29.86,ENE,68,0.0,0.0,100,0.00,,,0.35,VWS V13.01,2013-02-22 02:52:00,
2013-02-21 20:57:00,32.5,32.5,29.86,ENE,76,0.0,2.2,100,0.00,,,0.35,VWS V13.01,2013-02-22 02:57:00,
2013-02-21 21:02:00,32.3,32.3,29.86,ESE,103,0.0,0.0,100,0.00,,,0.35,VWS V13.01,2013-02-22 03:02:00,
2013-02-21 21:07:00,32.3,32.3,29.86,East,96,0.0,0.0,100,0.00,,,0.35,VWS V13.01,2013-02-22 03:07:00,
2013-02-21 21:12:00,32.3,32.3,29.86,NE,52,3.6,3.6,100,0.00,,,0.35,VWS V13.01,2013-02-22 03:12:00,
2013-02-21 21:17:00,32.3,32.3,29.89,NNE,12,2.7,2.7,100,0.00,,,0.35,VWS V13.01,2013-02-22 03:17:00,
2013-02-21 21:22:00,32.3,32.3,29.89,NE,40,0.0,0.0,100,0.00,,,0.35,VWS V13.01,2013-02-22 03:22:00,
2013-02-21 21:27:00,32.3,32.3,29.89,NE,42,0.0,2.2,100,0.00,,,0.35,VWS V13.01,2013-02-22 03:27:00,
2013-02-21 21:32:00,32.3,32.3,29.89,ENE,71,2.7,4.0,100,0.00,,,0.35,VWS V13.01,2013-02-22 03:32:00,
2013-02-21 21:37:00,32.3,32.3,29.89,ESE,105,0.0,0.0,100,0.00,,,0.35,VWS V13.01,2013-02-22 03:37:00,
2013-02-21 21:42:00,32.3,32.3,29.89,NE,42,0.0,0.0,100,0.00,,,0.35,VWS V13.01,2013-02-22 03:42:00,
2013-02-21 21:47:00,32.3,32.3,29.89,NE,42,0.0,0.0,100,0.00,,,0.35,VWS V13.01,2013-02-22 03:47:00,
2013-02-21 21:52:00,32.5,32.5,29.89,NE,42,0.0,0.0,100,0.00,,,0.35,VWS V13.01,2013-02-22 03:52:00,
2013-02-21 21:57:00,32.5,32.5,29.89,NE,42,0.0,0.0,100,0.00,,,0.35,VWS V13.01,2013-02-22 03:57:00,
2013-02-21 22:02:00,32.5,32.5,29.89,NE,42,0.0,0.0,100,0.00,,,0.35,VWS V13.01,2013-02-22 04:02:00,
2013-02-21 22:07:00,32.5,32.5,29.89,NE,42,0.0,0.0,100,0.00,,,0.35,VWS V13.01,2013-02-22 04:07:00,
2013-02-21 22:12:00,32.5,32.5,29.89,NE,42,0.0,0.0,100,0.00,,,0.35,VWS V13.01,2013-02-22 04:12:00,
2013-02-21 22:17:00,32.5,32.5,29.89,NE,42,0.0,0.0,100,0.04,,,0.39,VWS V13.01,2013-02-22 04:17:00,
2013-02-21 22:22:00,32.5,32.5,29.89,NE,42,0.0,0.0,100,0.04,,,0.39,VWS V13.01,2013-02-22 04:22:00,
2013-02-21 22:27:00,32.5,32.5,29.89,NE,42,0.0,0.0,100,0.04,,,0.39,VWS V13.01,2013-02-22 04:27:00,
2013-02-21 22:32:00,32.5,32.5,29.89,NE,42,0.0,0.0,100,0.04,,,0.39,VWS V13.01,2013-02-22 04:32:00,
2013-02-21 22:37:00,32.5,32.5,29.89,NE,42,0.0,0.0,100,0.04,,,0.39,VWS V13.01,2013-02-22 04:37:00,
2013-02-21 22:42:00,32.5,32.5,29.89,NE,42,0.0,0.0,100,0.04,,,0.39,VWS V13.01,2013-02-22 04:42:00,
2013-02-21 22:47:00,32.5,32.5,29.89,NNE,22,0.0,0.0,100,0.04,,,0.39,VWS V13.01,2013-02-22 04:47:00,
2013-02-21 22:52:00,32.5,32.5,29.89,NNE,22,0.0,0.0,100,0.04,,,0.39,VWS V13.01,2013-02-22 04:52:00,
2013-02-21 22:57:00,32.5,32.5,29.89,NNE,22,0.0,0.0,100,0.04,,,0.39,VWS V13.01,2013-02-22 04:57:00,
2013-02-21 23:00:00,32.5,32.5,29.89,NNE,22,0.0,0.0,100,0.04,,,0.39,VWS V13.01,2013-02-22 05:00:00,
2013-02-21 23:05:00,32.5,32.5,29.89,NNE,22,0.0,0.0,100,0.04,,,0.39,VWS V13.01,2013-02-22 05:05:00,
2013-02-21 23:10:00,32.5,32.5,29.89,NNE,22,0.0,0.0,100,0.04,,,0.39,VWS V13.01,2013-02-22 05:10:00,
2013-02-21 23:15:00,32.7,32.7,29.89,NNE,22,0.0,0.0,100,0.04,,,0.39,VWS V13.01,2013-02-22 05:15:00,
2013-02-21 23:20:00,32.7,32.7,29.89,NNE,22,0.0,0.0,100,0.00,,,0.39,VWS V13.01,2013-02-22 05:20:00,
2013-02-21 23:25:00,32.7,32.7,29.89,NNE,22,0.0,0.0,100,0.00,,,0.39,VWS V13.01,2013-02-22 05:25:00,
2013-02-21 23:30:00,32.5,32.5,29.86,NNE,22,0.0,0.0,100,0.00,,,0.39,VWS V13.01,2013-02-22 05:30:00,
2013-02-21 23:35:00,32.5,32.5,29.86,NNE,22,0.0,0.0,100,0.00,,,0.39,VWS V13.01,2013-02-22 05:35:00,
2013-02-21 23:40:00,32.7,32.7,29.86,NE,41,0.0,0.0,100,0.00,,,0.39,VWS V13.01,2013-02-22 05:40:00,
2013-02-21 23:45:00,32.7,32.7,29.89,WSW,238,3.1,5.4,100,0.00,,,0.39,VWS V13.01,2013-02-22 05:45:00,
2013-02-21 23:50:00,32.5,32.5,29.89,SSW,212,3.1,3.6,100,0.00,,,0.39,VWS V13.01,2013-02-22 05:50:00,
2013-02-21 23:55:00,32.5,32.5,29.89,SSW,212,2.7,3.1,100,0.00,,,0.39,VWS V13.01,2013-02-22 05:55:00,